Time;durP1;ratioP1;P1;durP2;ratioP2;P2;SDS_P1;SDS_P2;PMS_P1;PMS_P2;Temp;Humidity;BMP_temperature;BMP_pressure;BME280_temperature;BME280_humidity;BME280_pressure;Samples;Min_cycle;Max_cycle;Signal;HPM_P1;HPM_P2
2022/01/29 00:01:44;;;;;;;3.37;1.47;;;1.10;99.90;;;;;;5130143;27;20213;-68
2022/01/29 00:04:11;;;;;;;3.93;1.30;;;1.10;99.90;;;;;;5126601;27;20306;-68
2022/01/29 00:06:38;;;;;;;2.27;1.23;;;1.10;99.90;;;;;;5117715;27;20240;-67
2022/01/29 00:09:07;;;;;;;1.93;1.43;;;1.10;99.90;;;;;;5130894;27;20200;-67
2022/01/29 00:11:36;;;;;;;3.10;1.50;;;1.10;99.90;;;;;;5123262;27;20216;-67
2022/01/29 00:14:05;;;;;;;2.17;1.17;;;1.10;99.90;;;;;;5125057;27;20211;-67
2022/01/29 00:16:32;;;;;;;2.97;1.67;;;1.10;99.90;;;;;;5119379;27;20203;-68
2022/01/29 00:18:59;;;;;;;2.83;1.60;;;1.00;99.90;;;;;;5120920;27;20199;-68
2022/01/29 00:21:26;;;;;;;3.90;1.47;;;1.00;99.90;;;;;;5138270;27;20207;-67
2022/01/29 00:23:53;;;;;;;4.67;1.90;;;1.00;99.90;;;;;;5132650;27;20707;-67
2022/01/29 00:26:22;;;;;;;4.60;1.70;;;1.10;99.90;;;;;;5121904;27;20287;-67
2022/01/29 00:28:51;;;;;;;3.37;1.73;;;1.00;99.90;;;;;;5138194;27;20265;-67
2022/01/29 00:31:18;;;;;;;3.73;2.20;;;1.00;99.90;;;;;;5144296;27;20263;-67
2022/01/29 00:33:45;;;;;;;5.53;2.03;;;1.00;99.90;;;;;;5131877;27;20211;-66
2022/01/29 00:36:12;;;;;;;2.63;1.50;;;1.00;99.90;;;;;;5125187;27;20213;-67
2022/01/29 00:38:39;;;;;;;3.77;1.80;;;0.90;99.90;;;;;;5120937;27;20210;-68
2022/01/29 00:41:07;;;;;;;4.43;1.60;;;0.90;99.90;;;;;;5140887;27;20223;-67
2022/01/29 00:43:34;;;;;;;4.53;1.60;;;0.90;99.90;;;;;;5118939;27;20637;-67
2022/01/29 00:46:02;;;;;;;4.17;1.97;;;0.90;99.90;;;;;;5126645;27;20195;-67
2022/01/29 00:48:29;;;;;;;4.03;2.23;;;0.90;99.90;;;;;;5131413;27;20203;-68
2022/01/29 00:50:57;;;;;;;3.47;1.67;;;0.90;99.90;;;;;;5134997;27;20219;-68
2022/01/29 00:53:23;;;;;;;2.63;1.73;;;0.90;99.90;;;;;;5128425;27;20218;-67
2022/01/29 00:55:50;;;;;;;4.77;2.20;;;0.90;99.90;;;;;;5121521;27;20566;-68
2022/01/29 00:58:17;;;;;;;3.50;2.03;;;0.90;99.90;;;;;;5136402;27;20198;-67
2022/01/29 01:00:46;;;;;;;4.73;2.40;;;0.90;99.90;;;;;;5134985;27;20290;-66
2022/01/29 01:03:14;;;;;;;4.50;2.20;;;0.90;99.90;;;;;;5129741;27;20761;-67
2022/01/29 01:05:41;;;;;;;6.40;2.80;;;0.90;99.90;;;;;;5131809;27;20569;-67
2022/01/29 01:08:10;;;;;;;5.20;2.93;;;0.80;99.90;;;;;;5135350;27;20574;-67
2022/01/29 01:10:37;;;;;;;6.83;3.13;;;0.90;99.90;;;;;;5131808;27;20224;-67
2022/01/29 01:13:04;;;;;;;7.43;3.40;;;0.80;99.90;;;;;;5134353;27;20206;-70
2022/01/29 01:15:31;;;;;;;4.13;2.80;;;0.90;99.90;;;;;;5134563;27;20207;-71
2022/01/29 01:17:58;;;;;;;6.10;3.47;;;0.80;99.90;;;;;;5134016;27;20609;-68
2022/01/29 01:20:27;;;;;;;5.17;3.27;;;0.80;99.90;;;;;;5130166;27;20200;-69
2022/01/29 01:22:54;;;;;;;6.73;3.20;;;0.80;99.90;;;;;;5130201;27;20592;-69
2022/01/29 01:25:20;;;;;;;4.50;3.17;;;0.80;99.90;;;;;;5130217;27;20203;-69
2022/01/29 01:27:47;;;;;;;6.73;3.53;;;0.80;99.90;;;;;;5132773;27;20217;-69
2022/01/29 01:30:14;;;;;;;5.40;3.10;;;0.70;99.90;;;;;;5133498;27;20239;-70
2022/01/29 01:32:41;;;;;;;7.63;3.20;;;0.70;99.90;;;;;;5135496;27;20199;-70
2022/01/29 01:35:17;;;;;;;7.43;3.40;;;0.70;99.90;;;;;;5130955;27;20215;-69
2022/01/29 01:37:50;;;;;;;7.03;3.97;;;0.70;99.90;;;;;;5129347;27;20692;-68
2022/01/29 01:40:18;;;;;;;7.87;3.60;;;0.60;99.90;;;;;;5132143;27;20283;-69
2022/01/29 01:42:45;;;;;;;3.70;3.03;;;1.00;99.90;;;;;;5127833;27;20226;-69
2022/01/29 01:45:12;;;;;;;9.20;4.00;;;0.60;99.90;;;;;;5131851;27;20298;-70
2022/01/29 01:47:39;;;;;;;8.33;3.73;;;0.90;99.90;;;;;;5129982;27;20213;-69
2022/01/29 01:50:09;;;;;;;6.10;3.00;;;0.60;99.90;;;;;;5132311;27;20195;-69
2022/01/29 01:52:36;;;;;;;7.80;3.43;;;0.60;99.90;;;;;;5132886;27;20195;-68
2022/01/29 01:55:05;;;;;;;8.03;3.47;;;0.50;99.90;;;;;;5131905;27;20286;-68
2022/01/29 01:57:32;;;;;;;9.67;3.67;;;0.60;99.90;;;;;;5127021;27;20219;-69
2022/01/29 01:59:58;;;;;;;6.07;3.40;;;0.50;99.90;;;;;;5128436;27;20204;-68
2022/01/29 02:02:25;;;;;;;6.03;3.60;;;0.50;99.90;;;;;;5131607;27;20299;-69
2022/01/29 02:04:52;;;;;;;6.70;3.93;;;0.40;99.90;;;;;;5122205;27;20952;-68
2022/01/29 02:07:20;;;;;;;6.33;3.77;;;0.40;99.90;;;;;;5126628;27;20222;-68
2022/01/29 02:09:47;;;;;;;7.80;3.87;;;0.40;99.90;;;;;;5140402;27;20652;-69
2022/01/29 02:12:15;;;;;;;6.63;3.83;;;0.40;99.90;;;;;;5130535;27;20297;-68
2022/01/29 02:14:44;;;;;;;6.50;3.97;;;0.40;99.90;;;;;;5130563;27;20238;-69
2022/01/29 02:17:11;;;;;;;6.20;3.87;;;0.40;99.90;;;;;;5133575;27;20271;-69
2022/01/29 02:19:38;;;;;;;8.00;4.20;;;0.40;99.90;;;;;;5133018;27;20270;-69
2022/01/29 02:22:07;;;;;;;7.90;4.03;;;0.40;99.90;;;;;;5125589;27;20207;-70
2022/01/29 02:24:34;;;;;;;7.53;3.93;;;0.40;99.90;;;;;;5134987;27;20309;-69
2022/01/29 02:27:01;;;;;;;6.83;3.90;;;0.30;99.90;;;;;;5136647;27;20207;-70
2022/01/29 02:29:28;;;;;;;6.87;3.57;;;0.30;99.90;;;;;;5133832;27;20215;-69
2022/01/29 02:31:58;;;;;;;7.80;4.07;;;0.30;99.90;;;;;;5131909;28;20207;-69
2022/01/29 02:34:25;;;;;;;6.83;3.30;;;0.30;99.90;;;;;;5126486;27;20222;-69
2022/01/29 02:36:53;;;;;;;10.27;4.30;;;0.30;99.90;;;;;;5136009;27;21017;-70
2022/01/29 02:39:21;;;;;;;7.07;3.60;;;0.30;99.90;;;;;;5132823;27;20207;-69
2022/01/29 02:41:49;;;;;;;7.00;3.70;;;0.30;99.90;;;;;;5128108;28;20305;-69
2022/01/29 02:44:21;;;;;;;6.93;3.80;;;0.20;99.90;;;;;;5129025;28;20222;-70
2022/01/29 02:46:51;;;;;;;5.33;3.50;;;0.20;99.90;;;;;;5132732;27;20293;-70
2022/01/29 02:49:19;;;;;;;6.13;3.63;;;0.20;99.90;;;;;;5131909;27;20231;-70
2022/01/29 02:51:47;;;;;;;7.37;3.73;;;0.20;99.90;;;;;;5126855;28;20547;-69
2022/01/29 02:54:14;;;;;;;6.77;3.60;;;0.20;99.90;;;;;;5131978;28;20206;-69
2022/01/29 02:56:43;;;;;;;6.90;4.10;;;0.20;99.90;;;;;;5132409;28;20227;-70
2022/01/29 02:59:10;;;;;;;6.70;4.00;;;0.20;99.90;;;;;;5136042;27;20712;-70
2022/01/29 03:01:38;;;;;;;7.87;4.03;;;0.20;99.90;;;;;;5135627;27;20599;-69
2022/01/29 03:04:05;;;;;;;9.27;4.00;;;0.10;99.90;;;;;;5125974;27;20228;-69
2022/01/29 03:06:33;;;;;;;5.83;4.10;;;0.10;99.90;;;;;;5131002;27;20304;-69
2022/01/29 03:09:00;;;;;;;6.47;3.83;;;0.10;99.90;;;;;;5144329;27;20203;-69
2022/01/29 03:11:27;;;;;;;6.50;3.50;;;0.20;99.90;;;;;;5128628;28;20823;-69
2022/01/29 03:13:56;;;;;;;6.70;4.10;;;0.10;99.90;;;;;;5125022;28;20203;-70
2022/01/29 03:16:23;;;;;;;5.73;3.60;;;0.10;99.90;;;;;;5116416;28;20318;-69
2022/01/29 03:18:50;;;;;;;8.07;4.20;;;0.10;99.90;;;;;;5129544;27;20290;-70
2022/01/29 03:21:16;;;;;;;7.53;4.30;;;0.10;99.90;;;;;;5129674;27;20237;-69
2022/01/29 03:23:43;;;;;;;5.93;3.90;;;0.10;99.90;;;;;;5135967;27;20219;-68
2022/01/29 03:26:10;;;;;;;9.07;3.60;;;;;;;;;;5143736;27;20203;-68
2022/01/29 03:28:37;;;;;;;9.20;3.93;;;0.10;99.90;;;;;;5133593;27;20217;-68
2022/01/29 03:31:05;;;;;;;6.70;3.33;;;0.10;99.90;;;;;;5121205;27;20231;-68
2022/01/29 03:33:32;;;;;;;6.83;3.80;;;0.00;99.90;;;;;;5132395;27;20205;-68
2022/01/29 03:36:00;;;;;;;5.07;3.17;;;0.00;99.90;;;;;;5134117;27;20414;-68
2022/01/29 03:38:27;;;;;;;6.07;3.20;;;0.00;99.90;;;;;;5128039;27;20238;-69
2022/01/29 03:40:56;;;;;;;6.33;3.47;;;0.00;99.90;;;;;;5122283;27;20291;-69
2022/01/29 03:43:29;;;;;;;4.93;3.07;;;0.00;99.90;;;;;;5119086;27;20574;-69
2022/01/29 03:45:56;;;;;;;6.30;3.50;;;0.00;99.90;;;;;;5131082;27;20214;-68
2022/01/29 03:48:24;;;;;;;6.10;3.57;;;0.00;99.90;;;;;;5128677;27;20204;-69
2022/01/29 03:50:51;;;;;;;7.17;3.23;;;0.00;99.90;;;;;;5123864;27;20204;-68
2022/01/29 03:53:17;;;;;;;5.60;2.83;;;0.00;99.90;;;;;;5135000;27;20198;-68
2022/01/29 03:55:44;;;;;;;8.67;3.40;;;0.00;99.90;;;;;;5133590;27;20659;-67
2022/01/29 03:58:11;;;;;;;5.67;3.17;;;0.00;99.90;;;;;;5128703;27;20219;-68
2022/01/29 04:00:38;;;;;;;9.67;3.37;;;0.00;99.90;;;;;;5133141;27;20209;-68
2022/01/29 04:03:05;;;;;;;10.23;3.60;;;0.00;99.90;;;;;;5135059;27;20223;-69
2022/01/29 04:05:33;;;;;;;6.83;3.57;;;0.00;99.90;;;;;;5124358;27;20223;-69
2022/01/29 04:08:00;;;;;;;5.80;3.43;;;0.00;99.90;;;;;;5134944;27;20241;-69
2022/01/29 04:10:29;;;;;;;5.87;3.40;;;0.00;99.90;;;;;;5133634;27;20215;-69
2022/01/29 04:12:56;;;;;;;8.50;3.23;;;0.00;99.90;;;;;;5128353;27;20571;-68
2022/01/29 04:15:24;;;;;;;8.13;3.50;;;0.00;99.90;;;;;;5140844;27;20199;-68
2022/01/29 04:17:50;;;;;;;5.90;3.20;;;0.00;99.90;;;;;;5128449;27;20206;-68
2022/01/29 04:20:17;;;;;;;6.30;3.10;;;0.00;99.90;;;;;;5135659;27;20202;-68
2022/01/29 04:22:46;;;;;;;10.23;3.47;;;0.00;99.90;;;;;;5131826;27;20227;-68
2022/01/29 04:25:12;;;;;;;8.30;3.43;;;0.00;99.90;;;;;;5126158;27;20613;-68
2022/01/29 04:27:42;;;;;;;6.00;2.93;;;-0.10;99.90;;;;;;5134550;27;20293;-68
2022/01/29 04:30:15;;;;;;;4.83;3.00;;;0.00;99.90;;;;;;5142476;27;20754;-68
2022/01/29 04:35:27;;;;;;;8.40;3.50;;;0.00;99.90;;;;;;5123457;27;20191;-68
2022/01/29 04:37:55;;;;;;;8.87;3.20;;;0.00;99.90;;;;;;5123254;27;20245;-68
2022/01/29 04:40:22;;;;;;;8.77;3.10;;;0.00;99.90;;;;;;5130408;27;20195;-69
2022/01/29 04:42:49;;;;;;;5.83;3.50;;;0.00;99.90;;;;;;5137761;27;20211;-68
2022/01/29 04:45:16;;;;;;;6.53;3.47;;;0.00;99.90;;;;;;5137786;27;20223;-68
2022/01/29 04:47:43;;;;;;;6.23;2.57;;;0.00;99.90;;;;;;5127252;27;20581;-67
2022/01/29 04:50:11;;;;;;;4.30;2.87;;;0.00;99.90;;;;;;5126668;27;20200;-68
2022/01/29 04:52:38;;;;;;;6.57;3.10;;;0.00;99.90;;;;;;5128152;27;20232;-68
2022/01/29 04:55:07;;;;;;;6.47;2.83;;;0.00;99.90;;;;;;5122863;27;20202;-68
2022/01/29 04:57:36;;;;;;;4.73;2.70;;;0.00;99.90;;;;;;5130192;27;20309;-68
2022/01/29 05:00:07;;;;;;;7.30;3.17;;;0.00;99.90;;;;;;5132732;27;20230;-68
2022/01/29 05:02:35;;;;;;;5.57;2.93;;;0.00;99.90;;;;;;5133373;27;20519;-68
2022/01/29 05:05:02;;;;;;;6.47;2.73;;;0.00;99.90;;;;;;5141845;27;20228;-68
2022/01/29 05:07:29;;;;;;;6.67;2.83;;;0.00;99.90;;;;;;5132772;27;20237;-68
2022/01/29 05:09:55;;;;;;;6.13;3.03;;;0.00;99.90;;;;;;5138645;27;20568;-69
2022/01/29 05:12:29;;;;;;;5.87;2.87;;;0.10;99.90;;;;;;5130878;27;20583;-68
2022/01/29 05:15:08;;;;;;;5.43;2.70;;;0.00;99.90;;;;;;5130448;27;20728;-67
2022/01/29 05:28:33;;;;;;;4.33;2.40;;;0.00;99.90;;;;;;5125443;27;20194;-69
2022/01/29 05:31:00;;;;;;;8.70;3.37;;;0.00;99.90;;;;;;5146352;27;20210;-68
2022/01/29 05:33:27;;;;;;;4.37;2.77;;;0.00;99.90;;;;;;5130201;27;20230;-68
2022/01/29 05:35:54;;;;;;;7.53;2.87;;;0.00;99.90;;;;;;5133307;27;20195;-68
2022/01/29 05:38:21;;;;;;;6.33;3.27;;;-0.10;99.90;;;;;;5129176;27;20233;-69
2022/01/29 05:40:47;;;;;;;8.87;3.20;;;-0.10;99.90;;;;;;5142230;27;20208;-68
2022/01/29 05:43:14;;;;;;;6.20;2.70;;;0.00;99.90;;;;;;5118075;27;20207;-69
2022/01/29 05:45:42;;;;;;;4.90;2.80;;;0.00;99.90;;;;;;5128302;27;20231;-68
2022/01/29 05:48:09;;;;;;;6.77;3.60;;;0.00;99.90;;;;;;5126354;27;20215;-68
2022/01/29 05:50:36;;;;;;;6.77;3.00;;;0.00;99.90;;;;;;5135452;27;20203;-68
2022/01/29 05:53:03;;;;;;;10.60;3.77;;;-0.10;99.90;;;;;;5117773;27;20212;-69
2022/01/29 05:55:30;;;;;;;6.73;3.47;;;-0.10;99.90;;;;;;5130701;27;20203;-68
2022/01/29 05:57:57;;;;;;;5.30;3.10;;;-0.10;99.90;;;;;;5132791;27;20230;-68
2022/01/29 06:00:24;;;;;;;5.73;2.57;;;-0.10;99.90;;;;;;5128562;27;20301;-68
2022/01/29 06:03:01;;;;;;;10.03;3.33;;;-0.10;99.90;;;;;;5136316;27;20207;-69
2022/01/29 06:05:28;;;;;;;7.73;2.97;;;-0.10;99.90;;;;;;5122476;27;20218;-68
2022/01/29 06:07:55;;;;;;;6.97;3.60;;;-0.10;99.90;;;;;;5133739;27;20237;-68
2022/01/29 06:10:22;;;;;;;7.03;3.20;;;-0.10;99.90;;;;;;5132192;27;20672;-69
2022/01/29 06:12:58;;;;;;;7.93;3.40;;;-0.20;99.90;;;;;;5123138;27;20218;-69
2022/01/29 06:15:25;;;;;;;5.93;3.23;;;-0.20;99.90;;;;;;5142049;27;20188;-69
2022/01/29 06:17:52;;;;;;;10.40;3.67;;;-0.20;99.90;;;;;;5117908;27;20599;-69
2022/01/29 06:20:20;;;;;;;6.67;3.30;;;-0.20;99.90;;;;;;5132496;27;20296;-69
2022/01/29 06:22:47;;;;;;;7.30;3.40;;;-0.20;99.90;;;;;;5132124;27;20207;-68
2022/01/29 06:25:14;;;;;;;9.03;3.80;;;-0.20;99.90;;;;;;5124725;27;20313;-69
2022/01/29 06:27:41;;;;;;;7.73;3.53;;;-0.20;99.90;;;;;;5120316;28;20223;-69
2022/01/29 06:30:08;;;;;;;7.00;3.30;;;-0.20;99.90;;;;;;5145717;27;20195;-69
2022/01/29 06:32:35;;;;;;;6.53;3.30;;;-0.20;99.90;;;;;;5137437;27;20298;-68
2022/01/29 06:35:02;;;;;;;6.53;3.30;;;-0.10;99.90;;;;;;5126246;27;20204;-68
2022/01/29 06:37:30;;;;;;;8.77;3.60;;;-0.20;99.90;;;;;;5131073;28;20209;-69
2022/01/29 06:39:57;;;;;;;8.20;3.77;;;-0.20;99.90;;;;;;5131698;27;20595;-68
2022/01/29 06:42:24;;;;;;;6.87;3.70;;;-0.20;99.90;;;;;;5132035;28;20206;-68
2022/01/29 06:44:51;;;;;;;5.80;3.60;;;-0.20;99.90;;;;;;5126243;27;20230;-69
2022/01/29 06:47:18;;;;;;;6.13;3.63;;;-0.20;99.90;;;;;;5125596;28;20203;-68
2022/01/29 06:49:45;;;;;;;5.87;3.37;;;-0.10;99.90;;;;;;5130027;27;20301;-69
2022/01/29 06:52:12;;;;;;;7.47;4.10;;;-0.20;99.90;;;;;;5122812;28;20592;-69
2022/01/29 06:54:40;;;;;;;5.90;3.23;;;-0.20;99.90;;;;;;5126534;28;20638;-68
2022/01/29 06:57:07;;;;;;;5.30;3.40;;;-0.10;99.90;;;;;;5127267;27;20219;-69
2022/01/29 06:59:34;;;;;;;8.43;4.07;;;-0.10;99.90;;;;;;5130126;27;20584;-68
2022/01/29 07:02:01;;;;;;;7.97;4.33;;;-0.10;99.90;;;;;;5137927;27;20211;-68
2022/01/29 07:04:28;;;;;;;9.97;3.80;;;-0.10;99.90;;;;;;5130172;27;20249;-69
2022/01/29 07:06:55;;;;;;;6.40;4.00;;;-0.10;99.90;;;;;;5133411;27;20287;-69
2022/01/29 07:09:21;;;;;;;10.70;4.40;;;-0.10;99.90;;;;;;5140420;27;20620;-68
2022/01/29 07:11:55;;;;;;;6.80;4.43;;;0.00;99.90;;;;;;5142513;27;20207;-68
2022/01/29 07:14:22;;;;;;;10.10;4.70;;;0.10;99.90;;;;;;5132679;27;20203;-67
2022/01/29 07:16:49;;;;;;;10.73;4.27;;;0.20;99.90;;;;;;5121201;27;20203;-68
2022/01/29 07:19:16;;;;;;;6.50;3.90;;;0.40;99.90;;;;;;5126263;27;20727;-69
2022/01/29 07:21:43;;;;;;;8.37;4.07;;;0.50;99.90;;;;;;5133503;27;20286;-68
2022/01/29 07:24:10;;;;;;;12.73;4.70;;;0.50;99.90;;;;;;5139336;27;20225;-68
2022/01/29 07:26:37;;;;;;;11.53;4.60;;;0.80;99.90;;;;;;5123750;27;20199;-68
2022/01/29 07:29:05;;;;;;;8.43;3.97;;;0.90;99.90;;;;;;5132762;27;20211;-68
2022/01/29 07:31:32;;;;;;;8.73;4.23;;;1.00;99.90;;;;;;5132244;27;20668;-68
2022/01/29 07:33:58;;;;;;;10.17;3.60;;;1.10;99.90;;;;;;5140266;27;20986;-68
2022/01/29 07:36:25;;;;;;;6.60;3.70;;;1.30;99.90;;;;;;5133612;27;20196;-69
2022/01/29 07:38:52;;;;;;;9.00;4.00;;;1.30;99.90;;;;;;5132617;27;20230;-68
2022/01/29 07:41:19;;;;;;;8.30;4.20;;;1.30;99.90;;;;;;5130876;27;20199;-69
2022/01/29 07:43:46;;;;;;;8.43;3.43;;;1.30;99.90;;;;;;5131391;27;20302;-67
2022/01/29 07:46:14;;;;;;;9.63;4.07;;;1.30;99.90;;;;;;5122947;27;20234;-68
2022/01/29 07:48:41;;;;;;;6.90;3.60;;;1.30;99.90;;;;;;5129295;27;20231;-69
2022/01/29 07:51:08;;;;;;;9.60;4.20;;;1.20;99.90;;;;;;5131568;27;20202;-68
2022/01/29 07:53:35;;;;;;;10.33;4.60;;;1.20;99.90;;;;;;5133880;27;20214;-66
2022/01/29 07:56:02;;;;;;;9.97;4.43;;;1.20;99.90;;;;;;5123427;27;20306;-68
2022/01/29 07:58:32;;;;;;;11.77;4.13;;;1.30;99.90;;;;;;5130662;27;20290;-73
2022/01/29 08:00:58;;;;;;;8.40;4.07;;;1.30;99.90;;;;;;5135085;27;20213;-68
2022/01/29 08:03:27;;;;;;;11.73;4.87;;;1.30;99.90;;;;;;5128786;27;20196;-67
2022/01/29 08:05:53;;;;;;;7.50;4.00;;;1.40;99.90;;;;;;5141816;27;20226;-67
2022/01/29 08:08:22;;;;;;;10.50;4.13;;;1.40;99.90;;;;;;5127646;27;20291;-69
2022/01/29 08:10:49;;;;;;;8.73;3.77;;;1.60;99.90;;;;;;5125756;27;20203;-67
2022/01/29 08:13:15;;;;;;;10.07;4.13;;;1.70;99.90;;;;;;5133237;27;20199;-67
2022/01/29 08:15:42;;;;;;;7.07;4.27;;;1.80;99.90;;;;;;5138963;27;20203;-68
2022/01/29 08:18:09;;;;;;;6.87;3.37;;;2.00;99.90;;;;;;5142505;27;20749;-69
2022/01/29 08:20:38;;;;;;;6.37;3.73;;;2.20;99.90;;;;;;5124412;27;20652;-71
2022/01/29 08:23:08;;;;;;;11.00;4.40;;;2.30;99.90;;;;;;5137850;27;20286;-67
2022/01/29 08:25:35;;;;;;;8.13;4.13;;;2.50;99.90;;;;;;5136572;27;20239;-68
2022/01/29 08:28:02;;;;;;;9.20;4.03;;;2.60;99.90;;;;;;5140079;27;20580;-68
2022/01/29 08:30:29;;;;;;;11.00;4.23;;;2.60;99.90;;;;;;5141694;27;20199;-69
2022/01/29 08:32:56;;;;;;;9.10;4.23;;;2.70;99.90;;;;;;5132276;27;20203;-72
2022/01/29 08:35:23;;;;;;;10.00;4.10;;;2.80;99.90;;;;;;5129941;27;20421;-70
2022/01/29 08:37:51;;;;;;;11.83;4.10;;;2.90;99.90;;;;;;5133844;27;20605;-69
2022/01/29 08:40:18;;;;;;;10.67;4.47;;;3.00;99.90;;;;;;5133221;27;20671;-69
2022/01/29 08:42:45;;;;;;;11.87;4.97;;;3.10;99.90;;;;;;5133597;27;20630;-70
2022/01/29 08:45:13;;;;;;;10.13;4.00;;;3.30;99.90;;;;;;5134275;27;20227;-69
2022/01/29 08:47:40;;;;;;;8.47;4.40;;;3.60;99.90;;;;;;5128400;27;20212;-68
2022/01/29 08:50:07;;;;;;;12.37;4.73;;;3.80;99.90;;;;;;5132903;27;20199;-71
2022/01/29 08:52:35;;;;;;;14.73;5.33;;;4.10;99.90;;;;;;5120078;27;20212;-67
2022/01/29 08:55:05;;;;;;;11.67;4.17;;;4.40;99.90;;;;;;5123789;27;20703;-72
2022/01/29 08:57:31;;;;;;;9.00;4.47;;;4.60;99.90;;;;;;5133213;27;20251;-70
2022/01/29 08:59:59;;;;;;;9.67;4.33;;;4.70;99.90;;;;;;5134854;27;20213;-69
2022/01/29 09:02:26;;;;;;;11.63;4.93;;;5.00;99.90;;;;;;5128110;27;20252;-70
2022/01/29 09:04:55;;;;;;;13.03;5.20;;;5.40;99.90;;;;;;5132644;27;20576;-70
2022/01/29 09:07:22;;;;;;;10.27;4.27;;;7.40;99.90;;;;;;5129525;27;20242;-72
2022/01/29 09:09:49;;;;;;;11.27;4.37;;;7.40;99.90;;;;;;5139247;27;20430;-72
2022/01/29 09:12:17;;;;;;;9.67;4.37;;;9.70;99.90;;;;;;5129954;27;20235;-70
2022/01/29 09:14:44;;;;;;;11.37;4.60;;;12.10;99.90;;;;;;5134276;27;20203;-72
2022/01/29 09:17:11;;;;;;;13.03;5.53;;;13.90;93.10;;;;;;5138868;27;20733;-71
2022/01/29 09:19:38;;;;;;;9.27;4.67;;;15.30;84.50;;;;;;5141880;27;20215;-73
2022/01/29 09:22:05;;;;;;;7.70;4.47;;;15.60;70.70;;;;;;5132641;27;20286;-72
2022/01/29 09:24:32;;;;;;;9.63;4.93;;;15.40;70.40;;;;;;5133958;27;20202;-73
2022/01/29 09:27:00;;;;;;;12.33;5.23;;;15.20;67.90;;;;;;5133476;27;20226;-71
2022/01/29 09:29:28;;;;;;;9.40;4.80;;;15.20;65.70;;;;;;5136274;27;20591;-72
2022/01/29 09:31:55;;;;;;;9.27;4.60;;;14.50;63.40;;;;;;5136910;27;20295;-73
2022/01/29 09:34:22;;;;;;;13.53;5.53;;;13.70;62.80;;;;;;5133052;27;20209;-70
2022/01/29 09:36:48;;;;;;;11.67;5.67;;;13.20;67.70;;;;;;5139661;27;20201;-71
2022/01/29 09:39:15;;;;;;;12.67;5.57;;;13.30;69.50;;;;;;5137289;27;20274;-68
2022/01/29 09:41:45;;;;;;;10.13;5.00;;;13.30;66.50;;;;;;5128049;27;20207;-71
2022/01/29 09:44:13;;;;;;;10.33;4.67;;;12.90;66.20;;;;;;5128995;27;20199;-71
2022/01/29 09:46:44;;;;;;;12.43;5.20;;;12.90;75.60;;;;;;5134033;27;20372;-71
2022/01/29 09:49:12;;;;;;;13.90;4.73;;;13.10;76.80;;;;;;5129694;27;20207;-70
2022/01/29 09:51:39;;;;;;;11.23;5.10;;;14.80;73.20;;;;;;5129112;27;20290;-70
2022/01/29 09:54:06;;;;;;;11.80;5.00;;;17.00;64.60;;;;;;5135675;27;20203;-70
2022/01/29 09:56:33;;;;;;;9.60;5.23;;;18.80;59.00;;;;;;5131729;27;20219;-70
2022/01/29 09:59:01;;;;;;;12.57;5.33;;;21.60;52.50;;;;;;5131657;27;20207;-71
2022/01/29 10:01:28;;;;;;;13.73;5.72;;;23.60;49.70;;;;;;5132922;27;20686;-72
2022/01/29 10:04:01;;;;;;;13.13;6.32;;;23.60;50.00;;;;;;5130851;27;20207;-73
2022/01/29 10:06:29;;;;;;;10.75;5.72;;;23.70;43.90;;;;;;5132528;27;20234;-71
2022/01/29 10:08:56;;;;;;;13.95;5.80;;;22.60;43.40;;;;;;5139853;27;20210;-71
2022/01/29 10:11:25;;;;;;;13.60;6.53;;;21.40;44.70;;;;;;5143218;27;20210;-76
2022/01/29 10:13:58;;;;;;;14.10;6.38;;;20.50;46.80;;;;;;5125206;27;20214;-71
2022/01/29 10:16:27;;;;;;;13.23;5.95;;;21.00;47.80;;;;;;5134892;27;20191;-72
2022/01/29 10:19:01;;;;;;;12.80;5.85;;;22.30;46.60;;;;;;5126337;27;20270;-73
2022/01/29 10:21:30;;;;;;;13.57;6.63;;;23.70;44.60;;;;;;5129562;27;20234;-71
2022/01/29 10:24:04;;;;;;;12.38;5.85;;;24.90;43.20;;;;;;5130916;27;20260;-71
2022/01/29 10:26:34;;;;;;;10.85;5.50;;;25.30;41.10;;;;;;5126684;27;20692;-72
2022/01/29 10:29:02;;;;;;;11.68;5.68;;;24.60;39.40;;;;;;5129123;28;20255;-72
2022/01/29 10:31:43;;;;;;;11.30;5.97;;;22.90;38.60;;;;;;5116842;28;20199;-71
2022/01/29 10:34:23;;;;;;;14.63;6.30;;;20.70;40.50;;;;;;5126189;28;20287;-71
2022/01/29 10:37:16;;;;;;;15.82;6.05;;;18.50;42.50;;;;;;5139907;27;20282;-73
2022/01/29 10:39:44;;;;;;;9.47;5.07;;;16.70;45.40;;;;;;5132713;27;20285;-76
2022/01/29 10:42:16;;;;;;;13.93;5.93;;;15.10;47.30;;;;;;5132237;27;20203;-71
2022/01/29 10:44:45;;;;;;;13.90;5.50;;;13.90;49.70;;;;;;5141207;27;20202;-74
2022/01/29 10:47:12;;;;;;;13.17;5.50;;;12.80;51.30;;;;;;5130659;28;20226;-74
2022/01/29 10:49:49;;;;;;;13.47;5.20;;;11.90;53.40;;;;;;5132190;27;20211;-74
2022/01/29 10:52:18;;;;;;;13.57;4.90;;;11.10;55.10;;;;;;5136090;27;20203;-76
2022/01/29 10:54:49;;;;;;;13.83;4.97;;;10.40;57.00;;;;;;5129007;27;20563;-72
2022/01/29 10:57:17;;;;;;;14.13;5.33;;;9.90;59.40;;;;;;5128956;27;20614;-72
2022/01/29 10:59:49;;;;;;;11.50;4.63;;;9.50;60.40;;;;;;5129260;27;20207;-73
2022/01/29 11:02:17;;;;;;;14.10;4.80;;;9.10;61.90;;;;;;5132836;27;20207;-75
2022/01/29 11:04:47;;;;;;;12.73;5.13;;;8.80;64.20;;;;;;5124301;27;20656;-73
2022/01/29 11:07:17;;;;;;;13.37;4.80;;;8.70;65.70;;;;;;5127343;27;20239;-73
2022/01/29 11:09:46;;;;;;;11.67;4.90;;;8.40;66.60;;;;;;5132856;27;20288;-71
2022/01/29 11:12:17;;;;;;;12.33;4.43;;;8.40;67.20;;;;;;5136360;27;20207;-75
2022/01/29 11:14:44;;;;;;;14.93;4.80;;;8.30;68.20;;;;;;5129532;27;20517;-68
2022/01/29 11:17:11;;;;;;;15.57;5.13;;;8.20;68.90;;;;;;5122240;27;20214;-69
2022/01/29 11:19:40;;;;;;;17.43;5.50;;;8.00;69.10;;;;;;5129378;28;20203;-72
2022/01/29 11:22:10;;;;;;;15.67;5.23;;;7.80;70.10;;;;;;5128502;27;20551;-70
2022/01/29 11:24:40;;;;;;;16.13;5.00;;;7.70;71.10;;;;;;5131698;27;20206;-70
2022/01/29 11:27:21;;;;;;;13.50;5.43;;;7.10;72.30;;;;;;5130883;27;20230;-70
2022/01/29 11:30:01;;;;;;;17.20;5.67;;;7.10;72.90;;;;;;5139202;27;20261;-70
2022/01/29 11:32:34;;;;;;;12.10;4.83;;;6.90;74.40;;;;;;5139752;27;20517;-70
2022/01/29 11:35:18;;;;;;;11.40;5.43;;;6.60;75.80;;;;;;5118025;28;20199;-70
2022/01/29 11:37:57;;;;;;;14.23;4.60;;;6.40;77.40;;;;;;5131292;27;20254;-73
2022/01/29 11:40:30;;;;;;;18.70;5.70;;;6.20;78.80;;;;;;5133182;27;20195;-71
2022/01/29 11:43:07;;;;;;;15.40;5.50;;;6.00;80.80;;;;;;5140620;27;20214;-72
2022/01/29 11:45:46;;;;;;;16.40;6.40;;;5.90;83.10;;;;;;5143166;27;20485;-71
2022/01/29 11:48:54;;;;;;;14.07;5.10;;;5.80;85.60;;;;;;5136171;27;20214;-72
2022/01/29 11:51:43;;;;;;;20.67;5.93;;;5.80;88.40;;;;;;5110452;27;20203;-70
2022/01/29 11:54:14;;;;;;;13.37;5.30;;;5.70;90.60;;;;;;5139268;27;20219;-69
2022/01/29 11:56:44;;;;;;;17.00;6.13;;;5.70;92.00;;;;;;5132848;27;20211;-72
2022/01/29 11:59:30;;;;;;;11.40;5.07;;;4.50;92.80;;;;;;5113360;27;20251;-70
2022/01/29 12:02:00;;;;;;;16.30;5.57;;;5.60;94.90;;;;;;5132894;27;20210;-72
2022/01/29 12:05:07;;;;;;;15.87;5.63;;;5.50;96.70;;;;;;5136308;27;20258;-72
2022/01/29 12:07:38;;;;;;;17.27;5.90;;;5.40;97.20;;;;;;5128078;27;20417;-73
2022/01/29 12:10:10;;;;;;;17.80;5.90;;;5.40;98.50;;;;;;5136460;27;20207;-70
2022/01/29 12:12:38;;;;;;;12.57;5.43;;;5.30;99.90;;;;;;5134160;27;20231;-72
2022/01/29 12:15:35;;;;;;;14.13;6.27;;;5.30;99.90;;;;;;5135512;27;20298;-71
2022/01/29 12:18:05;;;;;;;14.30;6.63;;;5.20;99.90;;;;;;5125658;27;20222;-71
2022/01/29 12:20:32;;;;;;;17.03;6.13;;;5.20;99.90;;;;;;5135940;27;20210;-71
2022/01/29 12:23:01;;;;;;;16.73;5.80;;;5.10;99.90;;;;;;5134123;27;20203;-72
2022/01/29 12:25:30;;;;;;;18.90;6.73;;;5.20;99.90;;;;;;5134370;27;20298;-72
2022/01/29 12:27:58;;;;;;;19.83;6.70;;;5.10;99.90;;;;;;5140141;27;20242;-71
2022/01/29 12:30:30;;;;;;;13.37;6.47;;;5.10;99.90;;;;;;5131707;27;20540;-71
2022/01/29 12:32:58;;;;;;;16.57;6.53;;;5.00;99.90;;;;;;5137503;27;20283;-71
2022/01/29 12:35:40;;;;;;;15.93;5.83;;;5.00;99.90;;;;;;5133116;27;20221;-71
2022/01/29 12:38:08;;;;;;;16.43;6.17;;;4.90;99.90;;;;;;5134377;27;20191;-71
2022/01/29 12:40:39;;;;;;;17.43;6.63;;;4.80;99.90;;;;;;5136274;27;20210;-71
2022/01/29 12:43:21;;;;;;;16.27;7.20;;;4.70;99.90;;;;;;5135229;27;20629;-70
2022/01/29 12:45:50;;;;;;;19.13;6.30;;;4.70;99.90;;;;;;5123200;27;20199;-70
2022/01/29 12:48:17;;;;;;;17.57;6.77;;;4.60;99.90;;;;;;5136337;27;20595;-68
2022/01/29 12:50:45;;;;;;;13.03;5.57;;;4.50;99.90;;;;;;5133898;27;20207;-67
2022/01/29 12:53:15;;;;;;;16.27;6.50;;;4.40;99.90;;;;;;5122687;27;20223;-70
2022/01/29 12:55:43;;;;;;;17.17;7.03;;;4.40;99.90;;;;;;5134930;27;20210;-67
2022/01/29 12:58:10;;;;;;;14.33;6.07;;;4.40;99.90;;;;;;5127467;27;20597;-67
2022/01/29 13:00:38;;;;;;;12.33;6.20;;;4.40;99.90;;;;;;5136992;27;20211;-68
2022/01/29 13:03:07;;;;;;;14.57;5.93;;;4.40;99.90;;;;;;5127895;27;20682;-68
2022/01/29 13:05:41;;;;;;;17.63;5.80;;;4.30;99.90;;;;;;5135758;27;20195;-68
2022/01/29 13:08:08;;;;;;;20.40;6.30;;;4.30;99.90;;;;;;5129787;27;20239;-68
2022/01/29 13:10:35;;;;;;;17.17;6.40;;;4.20;99.90;;;;;;5134477;27;20209;-66
2022/01/29 13:13:04;;;;;;;13.87;6.50;;;4.20;99.90;;;;;;5134530;27;20318;-67